createdAt,value
2023-03-19T00:00:26.835Z,100521.44
2023-03-19T00:02:53.416Z,100522.94
2023-03-19T00:05:19.984Z,100521.47
2023-03-19T00:07:46.448Z,100529.53
2023-03-19T00:10:13.336Z,100525.53
2023-03-19T00:12:39.931Z,100524.47
2023-03-19T00:15:09.061Z,100533.81
2023-03-19T00:17:35.792Z,100525.31
2023-03-19T00:20:02.232Z,100521.47
2023-03-19T00:22:28.633Z,100526.16
2023-03-19T00:24:55.007Z,100522.31
2023-03-19T00:27:21.577Z,100524.47
2023-03-19T00:29:48.595Z,100520.88
2023-03-19T00:32:15.519Z,100527.44
2023-03-19T00:34:42.778Z,100535.13
2023-03-19T00:37:09.148Z,100524.09
2023-03-19T00:39:35.596Z,100540.63
2023-03-19T00:42:02.055Z,100534.28
2023-03-19T00:44:28.479Z,100535.34
2023-03-19T00:46:54.884Z,100539.78
2023-03-19T00:49:21.324Z,100535.13
2023-03-19T00:51:47.790Z,100530.47
2023-03-19T00:54:14.319Z,100535.13
2023-03-19T00:56:41.078Z,100534.28
2023-03-19T00:59:07.851Z,100532.59
2023-03-19T01:01:34.723Z,100532.19
2023-03-19T01:04:01.647Z,100530.13
2023-03-19T01:06:28.148Z,100530.56
2023-03-19T01:08:54.568Z,100529.72
2023-03-19T01:11:21.118Z,100536.09
2023-03-19T01:13:47.996Z,100546.06
2023-03-19T01:16:14.655Z,100533.59
2023-03-19T01:18:41.116Z,100534.41
2023-03-19T01:21:08.300Z,100532.75
2023-03-19T01:23:34.790Z,100525.53
2023-03-19T01:26:01.656Z,100533.78
2023-03-19T01:28:28.109Z,100523.00
2023-03-19T01:30:59.939Z,100522.19
2023-03-19T01:33:26.621Z,100526.00
2023-03-19T01:35:53.062Z,100515.19
2023-03-19T01:38:19.781Z,100515.44
2023-03-19T01:40:47.931Z,100519.25
2023-03-19T01:43:23.881Z,100535.78
2023-03-19T01:45:52.907Z,100532.19
2023-03-19T01:48:27.559Z,100539.59
2023-03-19T01:50:55.902Z,100538.75
2023-03-19T01:53:25.969Z,100537.91
2023-03-19T01:55:57.380Z,100537.91
2023-03-19T01:58:25.907Z,100543.41
2023-03-19T02:00:53.105Z,100537.09
2023-03-19T02:03:19.597Z,100547.72
2023-03-19T02:05:49.228Z,100543.50
2023-03-19T02:08:17.580Z,100546.91
2023-03-19T02:10:46.367Z,100545.91
2023-03-19T02:13:13.151Z,100544.09
2023-03-19T02:15:40.089Z,100544.75
2023-03-19T02:18:07.657Z,100543.50
2023-03-19T02:20:43.424Z,100544.41
2023-03-19T02:23:47.624Z,100542.53
2023-03-19T02:26:16.345Z,100545.16
2023-03-19T02:28:45.845Z,100549.41
2023-03-19T02:31:12.940Z,100547.06
2023-03-19T02:33:40.000Z,100552.44
2023-03-19T02:36:13.247Z,100551.78
2023-03-19T02:38:42.740Z,100543.97
2023-03-19T02:41:09.832Z,100551.63
2023-03-19T02:43:39.129Z,100542.75
2023-03-19T02:46:08.414Z,100549.53
2023-03-19T02:48:35.349Z,100543.63
2023-03-19T02:51:01.755Z,100545.75
2023-03-19T02:53:28.127Z,100548.94
2023-03-19T02:55:54.676Z,100547.91
2023-03-19T02:58:21.191Z,100550.66
2023-03-19T03:00:47.746Z,100544.53
2023-03-19T03:03:14.305Z,100550.03
2023-03-19T03:05:40.726Z,100544.53
2023-03-19T03:08:07.118Z,100540.28
2023-03-19T03:10:33.941Z,100544.94
2023-03-19T03:13:01.484Z,100545.41
2023-03-19T03:15:28.162Z,100546.06
2023-03-19T03:17:56.337Z,100537.19
2023-03-19T03:20:23.534Z,100532.53
2023-03-19T03:22:50.279Z,100533.16
2023-03-19T03:25:16.796Z,100534.84
2023-03-19T03:27:43.255Z,100540.13
2023-03-19T03:30:10.778Z,100543.09
2023-03-19T03:32:38.601Z,100549.66
2023-03-19T03:35:07.116Z,100557.31
2023-03-19T03:37:33.489Z,100555.00
2023-03-19T03:40:00.024Z,100553.91
2023-03-19T03:42:27.089Z,100557.75
2023-03-19T03:44:53.498Z,100563.25
2023-03-19T03:47:19.914Z,100564.31
2023-03-19T03:49:46.288Z,100568.97
2023-03-19T03:52:13.001Z,100580.22
2023-03-19T03:54:39.427Z,100572.56
2023-03-19T03:57:06.045Z,100578.06
2023-03-19T03:59:32.831Z,100576.38
2023-03-19T04:01:59.351Z,100573.00
2023-03-19T04:04:26.563Z,100575.53
2023-03-19T04:06:53.036Z,100582.50
2023-03-19T04:09:19.609Z,100577.63
2023-03-19T04:11:46.055Z,100578.47
2023-03-19T04:14:12.480Z,100576.31
2023-03-19T04:16:39.299Z,100571.47
2023-03-19T04:19:07.610Z,100569.97
2023-03-19T04:21:34.061Z,100565.72
2023-03-19T04:24:00.684Z,100564.06
2023-03-19T04:26:27.140Z,100568.72
2023-03-19T04:28:53.524Z,100566.41
2023-03-19T04:31:19.999Z,100571.66
2023-03-19T04:33:46.410Z,100567.25
2023-03-19T04:36:13.262Z,100570.81
2023-03-19T04:38:39.672Z,100567.00
2023-03-19T04:41:06.207Z,100573.38
2023-03-19T04:43:32.880Z,100576.13
2023-03-19T04:45:59.525Z,100581.41
2023-03-19T04:48:26.487Z,100588.59
2023-03-19T04:50:56.879Z,100581.19
2023-03-19T04:53:24.750Z,100592.81
2023-03-19T04:55:51.620Z,100589.00
2023-03-19T04:58:18.233Z,100593.69
2023-03-19T05:00:46.903Z,100593.69
2023-03-19T05:03:17.060Z,100595.75
2023-03-19T05:05:43.686Z,100600.41
2023-03-19T05:08:10.722Z,100591.50
2023-03-19T05:10:37.972Z,100601.44
2023-03-19T05:13:04.511Z,100605.03
2023-03-19T05:15:30.968Z,100605.91
2023-03-19T05:17:57.786Z,100605.03
2023-03-19T05:20:24.421Z,100613.06
2023-03-19T05:22:52.818Z,100619.41
2023-03-19T05:25:19.518Z,100609.50
2023-03-19T05:27:46.117Z,100605.91
2023-03-19T05:30:12.952Z,100597.41
2023-03-19T05:32:40.598Z,100603.13
2023-03-19T05:35:07.511Z,100604.00
2023-03-19T05:37:33.966Z,100609.25
2023-03-19T05:40:00.561Z,100611.81
2023-03-19T05:42:26.995Z,100614.31
2023-03-19T05:44:53.632Z,100624.47
2023-03-19T05:47:20.166Z,100621.31
2023-03-19T05:49:46.579Z,100634.00
2023-03-19T05:52:13.068Z,100628.72
2023-03-19T05:54:39.956Z,100633.59
2023-03-19T05:57:06.651Z,100634.03
2023-03-19T05:59:33.402Z,100643.59
2023-03-19T06:01:59.837Z,100624.06
2023-03-19T06:04:26.535Z,100623.25
2023-03-19T06:06:53.117Z,100629.81
2023-03-19T06:09:20.030Z,100631.72
2023-03-19T06:11:46.495Z,100625.78
2023-03-19T06:14:12.935Z,100635.50
2023-03-19T06:16:39.411Z,100646.28
2023-03-19T06:19:05.825Z,100638.03
2023-03-19T06:21:32.297Z,100631.25
2023-03-19T06:23:58.897Z,100641.19
2023-03-19T06:26:26.337Z,100639.91
2023-03-19T06:28:52.969Z,100644.34
2023-03-19T06:31:19.764Z,100648.16
2023-03-19T06:33:46.643Z,100638.59
2023-03-19T06:36:13.106Z,100649.78
2023-03-19T06:38:39.545Z,100647.19
2023-03-19T06:41:06.163Z,100651.84
2023-03-19T06:43:36.828Z,100654.75
2023-03-19T06:46:04.943Z,100644.97
2023-03-19T06:48:31.647Z,100651.75
2023-03-19T06:50:58.121Z,100654.91
2023-03-19T06:53:24.723Z,100647.03
2023-03-19T06:56:00.442Z,100649.78
2023-03-19T06:58:27.094Z,100661.44
2023-03-19T07:00:53.893Z,100662.66
2023-03-19T07:03:20.602Z,100658.84
2023-03-19T07:05:50.076Z,100654.56
2023-03-19T07:08:16.746Z,100651.16
2023-03-19T07:10:43.275Z,100653.66
2023-03-19T07:13:09.798Z,100654.91
2023-03-19T07:15:36.570Z,100653.19
2023-03-19T07:18:04.127Z,100659.09
2023-03-19T07:20:30.636Z,100663.09
2023-03-19T07:22:57.116Z,100665.16
2023-03-19T07:25:23.566Z,100669.13
2023-03-19T07:27:50.280Z,100676.34
2023-03-19T07:30:16.835Z,100677.97
2023-03-19T07:32:43.932Z,100674.59
2023-03-19T07:35:10.802Z,100676.66
2023-03-19T07:37:37.550Z,100685.72
2023-03-19T07:40:05.189Z,100689.25
2023-03-19T07:42:31.929Z,100698.53
2023-03-19T07:44:58.298Z,100695.09
2023-03-19T07:47:29.348Z,100693.56
2023-03-19T07:49:56.620Z,100694.81
2023-03-19T07:52:23.738Z,100687.75
2023-03-19T07:54:50.637Z,100696.19
2023-03-19T07:57:17.085Z,100699.09
2023-03-19T07:59:43.506Z,100705.84
2023-03-19T08:02:11.740Z,100702.88
2023-03-19T08:04:38.497Z,100712.06
2023-03-19T08:07:05.184Z,100707.63
2023-03-19T08:09:32.236Z,100709.69
2023-03-19T08:11:58.658Z,100711.38
2023-03-19T08:14:25.224Z,100711.97
2023-03-19T08:16:51.724Z,100711.53
2023-03-19T08:19:18.729Z,100710.44
2023-03-19T08:21:45.415Z,100715.53
2023-03-19T08:24:11.863Z,100710.63
2023-03-19T08:26:38.349Z,100710.41
2023-03-19T08:29:04.801Z,100717.38
2023-03-19T08:31:31.239Z,100716.91
2023-03-19T08:34:00.105Z,100708.63
2023-03-19T08:36:27.272Z,100710.06
2023-03-19T08:38:54.833Z,100711.16
2023-03-19T08:41:21.825Z,100715.59
2023-03-19T08:43:48.227Z,100709.47
2023-03-19T08:46:15.297Z,100710.53
2023-03-19T08:48:42.054Z,100714.16
2023-03-19T08:51:09.895Z,100723.06
2023-03-19T08:53:37.041Z,100724.72
2023-03-19T08:56:06.251Z,100727.47
2023-03-19T08:58:32.701Z,100725.81
2023-03-19T09:01:09.937Z,100728.97
2023-03-19T09:03:37.700Z,100731.47
2023-03-19T09:06:06.348Z,100736.09
2023-03-19T09:08:32.868Z,100734.69
2023-03-19T09:10:59.392Z,100740.38
2023-03-19T09:13:26.575Z,100740.50
2023-03-19T09:15:53.487Z,100739.59
2023-03-19T09:18:20.782Z,100742.50
2023-03-19T09:20:47.632Z,100742.88
2023-03-19T09:23:14.023Z,100742.81
2023-03-19T09:25:40.655Z,100738.03
2023-03-19T09:28:07.399Z,100727.75
2023-03-19T09:30:33.856Z,100727.28
2023-03-19T09:33:00.513Z,100731.03
2023-03-19T09:35:31.145Z,100727.56
2023-03-19T09:37:58.787Z,100730.94
2023-03-19T09:40:29.951Z,100726.00
2023-03-19T09:43:03.849Z,100732.66
2023-03-19T09:45:30.358Z,100731.47
2023-03-19T09:48:04.243Z,100733.31
2023-03-19T09:50:34.659Z,100727.91
2023-03-19T09:53:40.399Z,100727.91
2023-03-19T09:56:12.891Z,100740.03
2023-03-19T09:58:39.367Z,100741.13
2023-03-19T10:01:06.559Z,100741.97
2023-03-19T10:03:46.718Z,100737.75
2023-03-19T10:06:35.524Z,100740.03
2023-03-19T10:09:21.730Z,100741.50
2023-03-19T10:12:05.887Z,100735.72
2023-03-19T10:14:57.040Z,100738.47
2023-03-19T10:17:30.766Z,100744.00
2023-03-19T10:20:06.250Z,100745.22
2023-03-19T10:22:44.833Z,100751.97
2023-03-19T10:25:18.476Z,100753.19
2023-03-19T10:27:47.261Z,100746.69
2023-03-19T10:30:16.012Z,100750.66
2023-03-19T10:32:53.065Z,100750.31
2023-03-19T10:35:24.498Z,100753.59
2023-03-19T10:37:51.210Z,100748.56
2023-03-19T10:40:26.473Z,100746.28
2023-03-19T10:43:01.889Z,100738.22
2023-03-19T10:45:31.597Z,100735.00
2023-03-19T10:47:59.084Z,100735.75
2023-03-19T10:50:36.194Z,100742.84
2023-03-19T10:53:07.666Z,100735.94
2023-03-19T10:55:34.635Z,100737.91
2023-03-19T10:58:17.235Z,100739.47
2023-03-19T11:06:34.159Z,100740.44
2023-03-19T11:10:20.588Z,100749.00
2023-03-19T11:12:57.973Z,100748.41
2023-03-19T11:15:32.746Z,100754.50
2023-03-19T11:18:08.824Z,100754.97
2023-03-19T11:20:38.275Z,100752.72
2023-03-19T11:23:19.276Z,100753.22
2023-03-19T11:25:53.883Z,100748.91
2023-03-19T11:38:01.161Z,100762.38
2023-03-19T11:40:57.817Z,100752.94
2023-03-19T11:43:46.146Z,100755.72
2023-03-19T12:14:13.041Z,100741.63
2023-03-19T12:16:52.262Z,100741.06
2023-03-19T12:19:45.973Z,100735.97
2023-03-19T12:22:25.689Z,100737.44
2023-03-19T12:25:26.409Z,100736.19
2023-03-19T12:28:02.659Z,100735.59
2023-03-19T12:31:06.865Z,100739.91
2023-03-19T12:33:48.748Z,100735.03
2023-03-19T12:36:23.259Z,100734.69
2023-03-19T12:38:54.036Z,100732.66
2023-03-19T12:41:26.987Z,100735.94
2023-03-19T12:44:06.260Z,100737.13
2023-03-19T12:47:05.285Z,100735.25
2023-03-19T12:49:39.332Z,100737.59
2023-03-19T12:52:29.186Z,100737.66
2023-03-19T12:55:22.594Z,100723.69
2023-03-19T12:58:03.092Z,100732.66
2023-03-19T13:00:59.481Z,100725.25
2023-03-19T13:03:42.181Z,100729.81
2023-03-19T13:06:37.153Z,100738.69
2023-03-19T13:09:31.998Z,100725.09
2023-03-19T13:12:17.507Z,100723.72
2023-03-19T13:15:25.158Z,100735.47
2023-03-19T13:18:03.368Z,100732.44
2023-03-19T13:20:56.882Z,100729.81
2023-03-19T13:23:28.920Z,100715.22
2023-03-19T13:25:57.794Z,100712.09
2023-03-19T13:28:33.521Z,100711.75
2023-03-19T13:31:01.420Z,100720.81
2023-03-19T13:33:29.001Z,100716.13
2023-03-19T13:35:56.585Z,100716.47
2023-03-19T13:38:32.271Z,100719.22
2023-03-19T13:41:00.309Z,100711.25
2023-03-19T13:43:29.818Z,100707.88
2023-03-19T13:46:17.721Z,100705.72
2023-03-19T13:48:46.863Z,100713.69
2023-03-19T13:51:17.794Z,100719.72
2023-03-19T13:54:12.984Z,100715.78
2023-03-19T13:57:05.595Z,100718.53
2023-03-19T13:59:37.695Z,100717.81
2023-03-19T14:02:24.216Z,100712.78
2023-03-19T14:04:58.236Z,100715.19
2023-03-19T14:07:29.061Z,100712.00
2023-03-19T14:09:59.929Z,100715.47
2023-03-19T14:12:33.084Z,100707.34
2023-03-19T14:15:09.258Z,100703.69
2023-03-19T14:17:38.442Z,100707.75
2023-03-19T14:20:37.047Z,100696.19
2023-03-19T14:23:08.960Z,100699.50
2023-03-19T14:26:10.345Z,100689.66
2023-03-19T14:29:00.148Z,100688.66
2023-03-19T14:31:54.457Z,100687.28
2023-03-19T14:34:24.534Z,100680.25
2023-03-19T14:37:28.767Z,100682.44
2023-03-19T14:40:08.717Z,100681.22
2023-03-19T14:42:58.650Z,100688.38
2023-03-19T14:46:00.137Z,100682.81
2023-03-19T14:48:58.143Z,100676.75
2023-03-19T14:52:00.984Z,100676.59
2023-03-19T14:54:34.066Z,100670.13
2023-03-19T14:57:07.615Z,100673.06
2023-03-19T14:59:39.018Z,100667.25
2023-03-19T15:02:17.796Z,100670.66
2023-03-19T15:04:46.703Z,100664.75
2023-03-19T15:07:25.211Z,100667.91
2023-03-19T15:09:55.236Z,100661.69
2023-03-19T15:12:39.454Z,100673.41
2023-03-19T15:15:15.492Z,100668.50
2023-03-19T15:17:45.262Z,100668.94
2023-03-19T15:20:19.341Z,100675.00
2023-03-19T15:22:54.581Z,100669.50
2023-03-19T15:25:21.962Z,100678.69
2023-03-19T15:28:16.263Z,100669.81
2023-03-19T15:30:54.987Z,100667.91
2023-03-19T15:33:41.445Z,100672.69
2023-03-19T15:36:18.594Z,100682.16
2023-03-19T15:38:52.052Z,100674.59
2023-03-19T15:41:19.622Z,100679.25
2023-03-19T15:43:46.774Z,100678.09
2023-03-19T15:46:17.059Z,100689.66
2023-03-19T15:49:02.763Z,100689.59
2023-03-19T15:51:29.830Z,100694.38
2023-03-19T15:53:56.379Z,100696.44
2023-03-19T15:56:23.806Z,100694.28
2023-03-19T15:58:55.193Z,100702.13
2023-03-19T16:01:21.856Z,100700.03
2023-03-19T16:03:58.596Z,100711.28
2023-03-19T16:06:31.690Z,100706.31
2023-03-19T16:09:32.812Z,100707.16
2023-03-19T16:12:00.873Z,100724.44
2023-03-19T16:14:39.800Z,100721.50
2023-03-19T16:17:14.549Z,100724.47
2023-03-19T16:19:49.926Z,100725.81
2023-03-19T16:22:21.275Z,100729.59
2023-03-19T16:24:49.546Z,100730.72
2023-03-19T16:27:21.625Z,100731.22
2023-03-19T16:29:56.032Z,100742.84
2023-03-19T16:32:25.257Z,100736.59
2023-03-19T16:34:53.058Z,100745.72
2023-03-19T16:37:34.764Z,100742.84
2023-03-19T16:40:02.947Z,100751.03
2023-03-19T16:42:32.405Z,100750.09
2023-03-19T16:45:14.758Z,100756.16
2023-03-19T16:47:42.229Z,100763.28
2023-03-19T16:50:09.553Z,100768.28
2023-03-19T16:52:37.323Z,100758.75
2023-03-19T16:55:05.591Z,100768.91
2023-03-19T16:57:32.072Z,100770.78
2023-03-19T16:59:58.459Z,100775.13
2023-03-19T17:02:24.935Z,100780.56
2023-03-19T17:04:51.348Z,100785.19
2023-03-19T17:07:17.783Z,100785.63
2023-03-19T17:09:44.174Z,100793.63
2023-03-19T17:12:14.886Z,100783.63
2023-03-19T17:14:41.952Z,100790.78
2023-03-19T17:17:20.635Z,100800.41
2023-03-19T17:19:47.660Z,100801.75
2023-03-19T17:22:14.458Z,100803.94
2023-03-19T17:24:41.015Z,100811.66
2023-03-19T17:27:09.482Z,100817.19
2023-03-19T17:29:35.900Z,100822.66
2023-03-19T17:32:06.803Z,100830.75
2023-03-19T17:34:33.482Z,100839.91
2023-03-19T17:37:01.716Z,100842.34
2023-03-19T17:39:30.002Z,100845.03
2023-03-19T17:41:56.627Z,100848.53
2023-03-19T17:44:23.166Z,100859.25
2023-03-19T17:46:52.162Z,100858.06
2023-03-19T17:49:28.929Z,100855.06
2023-03-19T17:51:56.201Z,100854.44
2023-03-19T17:54:22.751Z,100853.00
2023-03-19T17:56:49.152Z,100861.44
2023-03-19T17:59:15.541Z,100868.28
2023-03-19T18:01:47.106Z,100872.16
2023-03-19T18:04:16.414Z,100869.84
2023-03-19T18:06:46.611Z,100875.03
2023-03-19T18:09:22.285Z,100880.69
2023-03-19T18:11:48.825Z,100892.13
2023-03-19T18:14:15.449Z,100884.75
2023-03-19T18:16:42.882Z,100893.38
2023-03-19T18:19:32.747Z,100900.38
2023-03-19T18:21:59.265Z,100918.00
2023-03-19T18:24:25.700Z,100913.41
2023-03-19T18:26:52.124Z,100925.03
2023-03-19T18:29:18.690Z,100914.44
2023-03-19T18:31:49.001Z,100926.44
2023-03-19T18:34:16.935Z,100917.16
2023-03-19T18:36:43.476Z,100926.97
2023-03-19T18:39:14.204Z,100937.69
2023-03-19T18:41:41.612Z,100945.84
2023-03-19T18:44:09.021Z,100948.44
2023-03-19T18:46:37.628Z,100948.06
2023-03-19T18:49:16.506Z,100942.16
2023-03-19T18:51:58.834Z,100946.47
2023-03-19T18:54:27.832Z,100953.91
2023-03-19T18:56:56.150Z,100952.25
2023-03-19T18:59:33.678Z,100961.34
2023-03-19T19:02:03.478Z,100958.00
2023-03-19T19:04:30.180Z,100962.88
2023-03-19T19:06:56.667Z,100969.72
2023-03-19T19:09:23.188Z,100970.59
2023-03-19T19:11:49.665Z,100974.66
2023-03-19T19:14:23.375Z,100983.81
2023-03-19T19:16:51.208Z,100980.88
2023-03-19T19:19:22.470Z,100976.66
2023-03-19T19:21:52.942Z,100984.56
2023-03-19T19:24:19.797Z,100983.31
2023-03-19T19:26:48.500Z,100983.75
2023-03-19T19:29:25.267Z,100992.97
2023-03-19T19:31:53.267Z,100994.47
2023-03-19T19:34:19.867Z,100991.75
2023-03-19T19:36:46.512Z,101001.81
2023-03-19T19:39:13.174Z,100999.72
2023-03-19T19:41:40.472Z,101005.06
2023-03-19T19:44:07.337Z,101007.66
2023-03-19T19:46:33.838Z,101004.50
2023-03-19T19:49:00.358Z,101014.94
2023-03-19T19:51:28.150Z,101025.38
2023-03-19T19:53:54.839Z,101021.13
2023-03-19T19:56:26.539Z,101020.28
2023-03-19T19:58:54.920Z,101019.69
2023-03-19T20:01:24.776Z,101021.78
2023-03-19T20:03:52.391Z,101025.00
2023-03-19T20:06:19.960Z,101031.00
2023-03-19T20:08:49.220Z,101038.03
2023-03-19T20:11:18.627Z,101042.50
2023-03-19T20:13:49.974Z,101047.38
2023-03-19T20:16:17.250Z,101050.59
2023-03-19T20:18:45.049Z,101055.69
2023-03-19T20:21:13.109Z,101049.34
2023-03-19T20:23:42.698Z,101049.56
2023-03-19T20:26:18.223Z,101057.00
2023-03-19T20:28:45.622Z,101060.81
2023-03-19T20:31:32.918Z,101061.28
2023-03-19T20:33:59.484Z,101077.22
2023-03-19T20:36:26.655Z,101070.22
2023-03-19T20:38:53.159Z,101077.03
2023-03-19T20:41:21.441Z,101081.91
2023-03-19T20:43:48.847Z,101088.53
2023-03-19T20:46:17.528Z,101087.25
2023-03-19T20:48:44.097Z,101097.44
2023-03-19T20:51:24.991Z,101101.28
2023-03-19T20:53:52.820Z,101094.28
2023-03-19T20:56:22.610Z,101087.06
2023-03-19T20:58:49.694Z,101095.56
2023-03-19T21:01:16.750Z,101090.47
2023-03-19T21:03:43.522Z,101096.22
2023-03-19T21:06:16.448Z,101102.81
2023-03-19T21:08:45.723Z,101102.19
2023-03-19T21:11:17.693Z,101101.53
2023-03-19T21:13:46.302Z,101101.78
2023-03-19T21:16:18.026Z,101107.31
2023-03-19T21:18:45.302Z,101108.56
2023-03-19T21:21:14.605Z,101111.56
2023-03-19T21:23:56.960Z,101116.22
2023-03-19T21:26:24.743Z,101116.22
2023-03-19T21:29:00.206Z,101117.28
2023-03-19T21:31:27.174Z,101117.28
2023-03-19T21:33:55.840Z,101121.75
2023-03-19T21:36:23.601Z,101123.66
2023-03-19T21:38:51.759Z,101122.34
2023-03-19T21:41:30.332Z,101126.81
2023-03-19T21:44:00.915Z,101121.91
2023-03-19T21:46:30.421Z,101118.09
2023-03-19T21:48:58.436Z,101128.09
2023-03-19T21:51:27.599Z,101133.59
2023-03-19T21:53:54.441Z,101125.53
2023-03-19T21:56:24.893Z,101126.38
2023-03-19T21:58:53.053Z,101131.28
2023-03-19T22:01:24.823Z,101129.38
2023-03-19T22:03:53.131Z,101119.59
2023-03-19T22:06:19.828Z,101129.78
2023-03-19T22:08:48.051Z,101122.59
2023-03-19T22:11:35.409Z,101129.16
2023-03-19T22:14:24.507Z,101127.72
2023-03-19T22:16:53.433Z,101127.72
2023-03-19T22:19:20.718Z,101129.81
2023-03-19T22:21:47.558Z,101127.28
2023-03-19T22:24:13.997Z,101128.53
2023-03-19T22:26:42.995Z,101139.81
2023-03-19T22:29:22.063Z,101136.41
2023-03-19T22:31:49.357Z,101136.66
2023-03-19T22:34:18.492Z,101140.03
2023-03-19T22:36:45.258Z,101136.66
2023-03-19T22:39:12.131Z,101134.50
2023-03-19T22:41:42.619Z,101138.72
2023-03-19T22:44:18.174Z,101134.91
2023-03-19T22:46:44.771Z,101142.13
2023-03-19T22:49:15.417Z,101140.84
2023-03-19T22:51:41.844Z,101140.41
2023-03-19T22:54:08.773Z,101144.69
2023-03-19T22:56:35.154Z,101148.28
2023-03-19T22:59:01.757Z,101151.88
2023-03-19T23:01:46.354Z,101152.72
2023-03-19T23:04:18.222Z,101158.22
2023-03-19T23:06:45.276Z,101170.13
2023-03-19T23:09:17.608Z,101165.91
2023-03-19T23:11:44.204Z,101166.75
2023-03-19T23:14:25.937Z,101165.66
2023-03-19T23:16:56.707Z,101162.94
2023-03-19T23:19:35.379Z,101163.78
2023-03-19T23:22:04.722Z,101169.50
2023-03-19T23:24:31.155Z,101168.03
2023-03-19T23:26:59.524Z,101166.34
2023-03-19T23:29:36.111Z,101159.13
2023-03-19T23:32:04.398Z,101169.75
2023-03-19T23:34:33.539Z,101174.03
2023-03-19T23:37:02.546Z,101170.81
2023-03-19T23:39:29.333Z,101180.59
2023-03-19T23:41:58.285Z,101180.34
2023-03-19T23:44:26.361Z,101170.19
2023-03-19T23:46:53.354Z,101182.06
2023-03-19T23:49:32.241Z,101185.00
2023-03-19T23:51:59.313Z,101189.06
2023-03-19T23:54:29.296Z,101197.31
2023-03-19T23:57:01.600Z,101204.50
2023-03-19T23:59:32.002Z,101204.75
